Terminal Aerodrome Forecast
Issued by NWS Tulsa, OK

Home | Current Version | Previous Version | Text Only | Print | Product List | Glossary On
Versions: 1 2 3 4 5 6 7 8 9 10 11 12 13 14
000
FTUS44 KTSA 222320
TAFFSM
TAF
KFSM 222320Z 2300/2324 07008KT P6SM SCT070 BKN150
     FM230200 VRB04KT P6SM -SHRA SCT050 BKN100
      TEMPO 2302/2306 5SM -TSRA BKN035CB
     FM230600 VRB03KT P6SM VCSH SCT035 BKN050
     FM231200 29003KT 5SM BR OVC012
     FM231600 30007KT P6SM BKN025
     FM231900 31010G16KT P6SM BKN050
      TEMPO 2321/2324 4SM -TSRA BKN030CB=

USA.gov is the U.S. government's official web portal to all federal, state and local government web resources and services.